sensor_id;sensor_type;location;lat;lon;timestamp;temperature;humidity
45137;DHT22;30894;51.740;19.498;2023-04-21T00:00:54;2.70;99.90
45137;DHT22;30894;51.740;19.498;2023-04-21T00:03:21;2.70;99.90
45137;DHT22;30894;51.740;19.498;2023-04-21T00:05:54;2.60;99.90
45137;DHT22;30894;51.740;19.498;2023-04-21T00:08:23;2.70;99.90
45137;DHT22;30894;51.740;19.498;2023-04-21T00:10:51;2.60;99.90
45137;DHT22;30894;51.740;19.498;2023-04-21T00:13:18;2.60;99.90
45137;DHT22;30894;51.740;19.498;2023-04-21T00:15:43;2.60;99.90
45137;DHT22;30894;51.740;19.498;2023-04-21T00:18:10;2.60;99.90
45137;DHT22;30894;51.740;19.498;2023-04-21T00:20:38;2.50;99.90
45137;DHT22;30894;51.740;19.498;2023-04-21T00:23:05;2.50;99.90
45137;DHT22;30894;51.740;19.498;2023-04-21T00:25:31;2.40;99.90
45137;DHT22;30894;51.740;19.498;2023-04-21T00:27:57;2.40;99.90
45137;DHT22;30894;51.740;19.498;2023-04-21T00:30:23;2.40;99.90
45137;DHT22;30894;51.740;19.498;2023-04-21T00:32:50;2.40;99.90
45137;DHT22;30894;51.740;19.498;2023-04-21T00:35:16;2.30;99.90
45137;DHT22;30894;51.740;19.498;2023-04-21T00:37:42;2.30;99.90
45137;DHT22;30894;51.740;19.498;2023-04-21T00:40:08;2.30;99.90
45137;DHT22;30894;51.740;19.498;2023-04-21T00:42:35;2.30;99.90
45137;DHT22;30894;51.740;19.498;2023-04-21T00:45:04;2.30;99.90
45137;DHT22;30894;51.740;19.498;2023-04-21T00:47:31;2.30;99.90
45137;DHT22;30894;51.740;19.498;2023-04-21T00:49:58;2.30;99.90
45137;DHT22;30894;51.740;19.498;2023-04-21T00:52:25;2.30;99.90
45137;DHT22;30894;51.740;19.498;2023-04-21T00:54:53;2.40;99.90
45137;DHT22;30894;51.740;19.498;2023-04-21T00:57:20;2.40;99.90
45137;DHT22;30894;51.740;19.498;2023-04-21T00:59:46;2.40;99.90
45137;DHT22;30894;51.740;19.498;2023-04-21T01:02:17;2.40;99.90
45137;DHT22;30894;51.740;19.498;2023-04-21T01:04:43;2.40;99.90
45137;DHT22;30894;51.740;19.498;2023-04-21T01:07:10;2.40;99.90
45137;DHT22;30894;51.740;19.498;2023-04-21T01:09:36;2.30;99.90
45137;DHT22;30894;51.740;19.498;2023-04-21T01:12:08;2.30;99.90
45137;DHT22;30894;51.740;19.498;2023-04-21T01:14:36;2.30;99.90
45137;DHT22;30894;51.740;19.498;2023-04-21T01:17:04;2.30;99.90
45137;DHT22;30894;51.740;19.498;2023-04-21T01:19:39;2.30;99.90
45137;DHT22;30894;51.740;19.498;2023-04-21T01:22:08;2.40;99.90
45137;DHT22;30894;51.740;19.498;2023-04-21T01:24:41;2.40;99.90
45137;DHT22;30894;51.740;19.498;2023-04-21T01:27:12;2.40;99.90
45137;DHT22;30894;51.740;19.498;2023-04-21T01:29:41;2.40;99.90
45137;DHT22;30894;51.740;19.498;2023-04-21T01:32:11;2.40;99.90
45137;DHT22;30894;51.740;19.498;2023-04-21T01:34:40;2.40;99.90
45137;DHT22;30894;51.740;19.498;2023-04-21T01:37:12;2.40;99.90
45137;DHT22;30894;51.740;19.498;2023-04-21T01:39:46;2.30;99.90
45137;DHT22;30894;51.740;19.498;2023-04-21T01:42:18;2.30;99.90
45137;DHT22;30894;51.740;19.498;2023-04-21T01:44:44;2.20;99.90
45137;DHT22;30894;51.740;19.498;2023-04-21T01:47:12;2.20;99.90
45137;DHT22;30894;51.740;19.498;2023-04-21T01:49:38;2.20;99.90
45137;DHT22;30894;51.740;19.498;2023-04-21T01:52:04;2.20;99.90
45137;DHT22;30894;51.740;19.498;2023-04-21T01:54:30;2.30;99.90
45137;DHT22;30894;51.740;19.498;2023-04-21T01:56:56;2.30;99.90
45137;DHT22;30894;51.740;19.498;2023-04-21T01:59:22;2.40;99.90
45137;DHT22;30894;51.740;19.498;2023-04-21T02:01:49;2.40;99.90
45137;DHT22;30894;51.740;19.498;2023-04-21T02:04:15;2.40;99.90
45137;DHT22;30894;51.740;19.498;2023-04-21T02:06:41;2.30;99.90
45137;DHT22;30894;51.740;19.498;2023-04-21T02:09:07;2.30;99.90
45137;DHT22;30894;51.740;19.498;2023-04-21T02:11:33;2.20;99.90
45137;DHT22;30894;51.740;19.498;2023-04-21T02:14:00;2.10;99.90
45137;DHT22;30894;51.740;19.498;2023-04-21T02:16:26;2.10;99.90
45137;DHT22;30894;51.740;19.498;2023-04-21T02:18:56;2.00;99.90
45137;DHT22;30894;51.740;19.498;2023-04-21T02:21:26;1.90;99.90
45137;DHT22;30894;51.740;19.498;2023-04-21T02:23:52;1.90;99.90
45137;DHT22;30894;51.740;19.498;2023-04-21T02:26:19;2.00;99.90
45137;DHT22;30894;51.740;19.498;2023-04-21T02:28:45;2.00;99.90
45137;DHT22;30894;51.740;19.498;2023-04-21T02:31:12;2.00;99.90
45137;DHT22;30894;51.740;19.498;2023-04-21T02:33:38;2.00;99.90
45137;DHT22;30894;51.740;19.498;2023-04-21T02:36:04;1.90;99.90
45137;DHT22;30894;51.740;19.498;2023-04-21T02:38:30;1.80;99.90
45137;DHT22;30894;51.740;19.498;2023-04-21T02:40:57;1.80;99.90
45137;DHT22;30894;51.740;19.498;2023-04-21T02:43:23;1.70;99.90
45137;DHT22;30894;51.740;19.498;2023-04-21T02:45:49;1.60;99.90
45137;DHT22;30894;51.740;19.498;2023-04-21T02:48:15;1.60;99.90
45137;DHT22;30894;51.740;19.498;2023-04-21T02:50:50;1.50;99.90
45137;DHT22;30894;51.740;19.498;2023-04-21T02:53:20;1.50;99.90
45137;DHT22;30894;51.740;19.498;2023-04-21T02:55:47;1.40;99.90
45137;DHT22;30894;51.740;19.498;2023-04-21T02:58:13;1.40;99.90
45137;DHT22;30894;51.740;19.498;2023-04-21T03:00:39;1.40;99.90
45137;DHT22;30894;51.740;19.498;2023-04-21T03:03:05;1.30;99.90
45137;DHT22;30894;51.740;19.498;2023-04-21T03:05:32;1.30;99.90
45137;DHT22;30894;51.740;19.498;2023-04-21T03:07:58;1.20;99.90
45137;DHT22;30894;51.740;19.498;2023-04-21T03:10:25;1.30;99.90
45137;DHT22;30894;51.740;19.498;2023-04-21T03:12:51;1.20;99.90
45137;DHT22;30894;51.740;19.498;2023-04-21T03:15:17;1.10;99.90
45137;DHT22;30894;51.740;19.498;2023-04-21T03:17:44;1.10;99.90
45137;DHT22;30894;51.740;19.498;2023-04-21T03:20:10;1.20;99.90
45137;DHT22;30894;51.740;19.498;2023-04-21T03:22:38;1.10;99.90
45137;DHT22;30894;51.740;19.498;2023-04-21T03:25:04;1.20;99.90
45137;DHT22;30894;51.740;19.498;2023-04-21T03:27:31;1.20;99.90
45137;DHT22;30894;51.740;19.498;2023-04-21T03:29:58;1.10;99.90
45137;DHT22;30894;51.740;19.498;2023-04-21T03:32:24;1.10;99.90
45137;DHT22;30894;51.740;19.498;2023-04-21T03:34:51;1.10;99.90
45137;DHT22;30894;51.740;19.498;2023-04-21T03:37:17;1.00;99.90
45137;DHT22;30894;51.740;19.498;2023-04-21T03:39:43;1.00;99.90
45137;DHT22;30894;51.740;19.498;2023-04-21T03:42:09;1.00;99.90
45137;DHT22;30894;51.740;19.498;2023-04-21T03:44:35;0.90;99.90
45137;DHT22;30894;51.740;19.498;2023-04-21T03:47:01;0.90;99.90
45137;DHT22;30894;51.740;19.498;2023-04-21T03:49:29;0.90;99.90
45137;DHT22;30894;51.740;19.498;2023-04-21T03:51:55;0.90;99.90
45137;DHT22;30894;51.740;19.498;2023-04-21T03:54:21;0.90;99.90
45137;DHT22;30894;51.740;19.498;2023-04-21T03:56:47;0.90;99.90
45137;DHT22;30894;51.740;19.498;2023-04-21T03:59:13;0.90;99.90
45137;DHT22;30894;51.740;19.498;2023-04-21T04:01:39;0.90;99.90
45137;DHT22;30894;51.740;19.498;2023-04-21T04:04:07;1.00;99.90
45137;DHT22;30894;51.740;19.498;2023-04-21T04:06:33;1.10;99.90
45137;DHT22;30894;51.740;19.498;2023-04-21T04:09:01;1.10;99.90
45137;DHT22;30894;51.740;19.498;2023-04-21T04:11:31;1.10;99.90
45137;DHT22;30894;51.740;19.498;2023-04-21T04:13:58;1.20;99.90
45137;DHT22;30894;51.740;19.498;2023-04-21T04:16:24;1.20;99.90
45137;DHT22;30894;51.740;19.498;2023-04-21T04:18:50;1.30;99.90
45137;DHT22;30894;51.740;19.498;2023-04-21T04:21:16;1.30;99.90
45137;DHT22;30894;51.740;19.498;2023-04-21T04:23:42;1.40;99.90
45137;DHT22;30894;51.740;19.498;2023-04-21T04:26:09;1.40;99.90
45137;DHT22;30894;51.740;19.498;2023-04-21T04:28:36;1.50;99.90
45137;DHT22;30894;51.740;19.498;2023-04-21T04:31:02;1.50;99.90
45137;DHT22;30894;51.740;19.498;2023-04-21T04:33:29;1.60;99.90
45137;DHT22;30894;51.740;19.498;2023-04-21T04:35:55;1.90;99.90
45137;DHT22;30894;51.740;19.498;2023-04-21T04:38:23;2.20;99.90
45137;DHT22;30894;51.740;19.498;2023-04-21T04:40:55;2.60;99.90
45137;DHT22;30894;51.740;19.498;2023-04-21T04:43:23;3.00;99.90
45137;DHT22;30894;51.740;19.498;2023-04-21T04:45:50;3.40;99.90
45137;DHT22;30894;51.740;19.498;2023-04-21T04:48:16;3.60;99.90
45137;DHT22;30894;51.740;19.498;2023-04-21T04:50:43;4.00;99.90
45137;DHT22;30894;51.740;19.498;2023-04-21T04:53:09;4.30;99.90
45137;DHT22;30894;51.740;19.498;2023-04-21T04:55:35;4.60;99.90
45137;DHT22;30894;51.740;19.498;2023-04-21T04:58:03;4.90;99.90
45137;DHT22;30894;51.740;19.498;2023-04-21T05:00:29;5.30;99.90
45137;DHT22;30894;51.740;19.498;2023-04-21T05:02:56;5.70;99.90
45137;DHT22;30894;51.740;19.498;2023-04-21T05:05:22;6.00;99.90
45137;DHT22;30894;51.740;19.498;2023-04-21T05:07:51;6.30;99.90
45137;DHT22;30894;51.740;19.498;2023-04-21T05:10:17;6.70;99.80
45137;DHT22;30894;51.740;19.498;2023-04-21T05:12:43;7.00;99.30
45137;DHT22;30894;51.740;19.498;2023-04-21T05:15:09;7.30;98.30
45137;DHT22;30894;51.740;19.498;2023-04-21T05:17:36;7.70;97.60
45137;DHT22;30894;51.740;19.498;2023-04-21T05:20:04;8.00;96.90
45137;DHT22;30894;51.740;19.498;2023-04-21T05:22:31;8.30;96.20
45137;DHT22;30894;51.740;19.498;2023-04-21T05:24:57;8.70;95.40
45137;DHT22;30894;51.740;19.498;2023-04-21T05:27:24;8.90;94.80
45137;DHT22;30894;51.740;19.498;2023-04-21T05:29:51;9.20;94.40
45137;DHT22;30894;51.740;19.498;2023-04-21T05:32:19;9.30;94.30
45137;DHT22;30894;51.740;19.498;2023-04-21T05:34:45;9.50;94.20
45137;DHT22;30894;51.740;19.498;2023-04-21T05:37:12;9.70;94.10
45137;DHT22;30894;51.740;19.498;2023-04-21T05:39:39;10.10;93.70
45137;DHT22;30894;51.740;19.498;2023-04-21T05:42:11;10.50;93.10
45137;DHT22;30894;51.740;19.498;2023-04-21T05:44:38;10.80;92.40
45137;DHT22;30894;51.740;19.498;2023-04-21T05:47:05;11.20;91.80
45137;DHT22;30894;51.740;19.498;2023-04-21T05:49:32;11.70;91.20
45137;DHT22;30894;51.740;19.498;2023-04-21T05:51:59;12.20;90.10
45137;DHT22;30894;51.740;19.498;2023-04-21T05:54:25;12.80;88.20
45137;DHT22;30894;51.740;19.498;2023-04-21T05:56:51;13.40;86.20
45137;DHT22;30894;51.740;19.498;2023-04-21T05:59:17;14.00;84.10
45137;DHT22;30894;51.740;19.498;2023-04-21T06:01:43;14.50;82.20
45137;DHT22;30894;51.740;19.498;2023-04-21T06:04:10;15.00;80.70
45137;DHT22;30894;51.740;19.498;2023-04-21T06:06:38;15.40;79.50
45137;DHT22;30894;51.740;19.498;2023-04-21T06:09:04;15.80;78.30
45137;DHT22;30894;51.740;19.498;2023-04-21T06:11:33;16.10;77.20
45137;DHT22;30894;51.740;19.498;2023-04-21T06:14:02;16.50;76.80
45137;DHT22;30894;51.740;19.498;2023-04-21T06:16:28;16.90;76.00
45137;DHT22;30894;51.740;19.498;2023-04-21T06:18:57;17.40;74.90
45137;DHT22;30894;51.740;19.498;2023-04-21T06:21:24;17.80;73.90
45137;DHT22;30894;51.740;19.498;2023-04-21T06:23:50;17.90;73.60
45137;DHT22;30894;51.740;19.498;2023-04-21T06:26:16;18.20;73.20
45137;DHT22;30894;51.740;19.498;2023-04-21T06:28:42;18.40;72.80
45137;DHT22;30894;51.740;19.498;2023-04-21T06:31:09;18.60;72.30
45137;DHT22;30894;51.740;19.498;2023-04-21T06:33:40;18.80;71.90
45137;DHT22;30894;51.740;19.498;2023-04-21T06:36:07;19.10;71.50
45137;DHT22;30894;51.740;19.498;2023-04-21T06:38:36;19.30;71.10
45137;DHT22;30894;51.740;19.498;2023-04-21T06:41:04;19.70;70.60
45137;DHT22;30894;51.740;19.498;2023-04-21T06:43:31;20.10;70.00
45137;DHT22;30894;51.740;19.498;2023-04-21T06:45:58;20.50;69.30
45137;DHT22;30894;51.740;19.498;2023-04-21T06:48:24;20.80;68.80
45137;DHT22;30894;51.740;19.498;2023-04-21T06:50:51;21.00;68.30
45137;DHT22;30894;51.740;19.498;2023-04-21T06:53:17;21.30;67.90
45137;DHT22;30894;51.740;19.498;2023-04-21T06:55:44;21.60;67.50
45137;DHT22;30894;51.740;19.498;2023-04-21T06:58:10;21.70;67.10
45137;DHT22;30894;51.740;19.498;2023-04-21T07:00:36;21.80;66.90
45137;DHT22;30894;51.740;19.498;2023-04-21T07:03:02;22.10;66.70
45137;DHT22;30894;51.740;19.498;2023-04-21T07:05:29;22.30;66.30
45137;DHT22;30894;51.740;19.498;2023-04-21T07:07:55;22.60;66.00
45137;DHT22;30894;51.740;19.498;2023-04-21T07:10:25;22.90;65.50
45137;DHT22;30894;51.740;19.498;2023-04-21T07:12:51;23.40;65.00
45137;DHT22;30894;51.740;19.498;2023-04-21T07:15:18;23.80;64.30
45137;DHT22;30894;51.740;19.498;2023-04-21T07:17:45;24.20;63.80
45137;DHT22;30894;51.740;19.498;2023-04-21T07:20:12;24.50;63.40
45137;DHT22;30894;51.740;19.498;2023-04-21T07:22:38;24.90;63.00
45137;DHT22;30894;51.740;19.498;2023-04-21T07:25:05;25.30;62.30
45137;DHT22;30894;51.740;19.498;2023-04-21T07:27:32;25.60;62.00
45137;DHT22;30894;51.740;19.498;2023-04-21T07:30:02;25.80;61.70
45137;DHT22;30894;51.740;19.498;2023-04-21T07:32:31;26.00;61.50
45137;DHT22;30894;51.740;19.498;2023-04-21T07:34:58;26.30;61.20
45137;DHT22;30894;51.740;19.498;2023-04-21T07:37:26;26.60;60.80
45137;DHT22;30894;51.740;19.498;2023-04-21T07:39:53;26.90;60.50
45137;DHT22;30894;51.740;19.498;2023-04-21T07:42:19;27.20;60.10
45137;DHT22;30894;51.740;19.498;2023-04-21T07:44:45;27.60;59.70
45137;DHT22;30894;51.740;19.498;2023-04-21T07:47:14;28.00;59.20
45137;DHT22;30894;51.740;19.498;2023-04-21T07:49:41;28.10;58.90
45137;DHT22;30894;51.740;19.498;2023-04-21T07:52:07;28.00;58.80
45137;DHT22;30894;51.740;19.498;2023-04-21T07:54:33;28.10;59.00
45137;DHT22;30894;51.740;19.498;2023-04-21T07:56:59;28.30;58.70
45137;DHT22;30894;51.740;19.498;2023-04-21T07:59:27;28.60;58.50
45137;DHT22;30894;51.740;19.498;2023-04-21T08:01:53;29.10;58.10
45137;DHT22;30894;51.740;19.498;2023-04-21T08:04:19;29.30;58.20
45137;DHT22;30894;51.740;19.498;2023-04-21T08:06:45;29.40;57.50
45137;DHT22;30894;51.740;19.498;2023-04-21T08:09:12;29.80;57.20
45137;DHT22;30894;51.740;19.498;2023-04-21T08:11:38;29.80;56.90
45137;DHT22;30894;51.740;19.498;2023-04-21T08:14:04;29.80;56.90
45137;DHT22;30894;51.740;19.498;2023-04-21T08:16:31;30.00;56.70
45137;DHT22;30894;51.740;19.498;2023-04-21T08:18:57;30.60;56.30
45137;DHT22;30894;51.740;19.498;2023-04-21T08:21:23;30.90;55.80
45137;DHT22;30894;51.740;19.498;2023-04-21T08:23:50;31.00;55.60
45137;DHT22;30894;51.740;19.498;2023-04-21T08:26:16;31.20;55.40
45137;DHT22;30894;51.740;19.498;2023-04-21T08:28:46;31.20;55.20
45137;DHT22;30894;51.740;19.498;2023-04-21T08:31:14;31.20;55.20
45137;DHT22;30894;51.740;19.498;2023-04-21T08:33:40;31.40;55.00
45137;DHT22;30894;51.740;19.498;2023-04-21T08:36:07;31.80;54.70
45137;DHT22;30894;51.740;19.498;2023-04-21T08:38:33;31.80;54.40
45137;DHT22;30894;51.740;19.498;2023-04-21T08:41:00;31.70;54.50
45137;DHT22;30894;51.740;19.498;2023-04-21T08:43:27;31.50;54.40
45137;DHT22;30894;51.740;19.498;2023-04-21T08:45:53;31.20;54.60
45137;DHT22;30894;51.740;19.498;2023-04-21T08:48:21;31.10;54.80
45137;DHT22;30894;51.740;19.498;2023-04-21T08:50:49;31.10;55.30
45137;DHT22;30894;51.740;19.498;2023-04-21T08:53:16;31.10;54.50
45137;DHT22;30894;51.740;19.498;2023-04-21T08:55:43;31.50;54.20
45137;DHT22;30894;51.740;19.498;2023-04-21T08:58:10;31.70;53.70
45137;DHT22;30894;51.740;19.498;2023-04-21T09:00:38;31.80;53.50
45137;DHT22;30894;51.740;19.498;2023-04-21T09:03:06;31.90;54.00
45137;DHT22;30894;51.740;19.498;2023-04-21T09:05:33;31.80;53.20
45137;DHT22;30894;51.740;19.498;2023-04-21T09:08:12;31.90;53.00
45137;DHT22;30894;51.740;19.498;2023-04-21T09:10:48;32.20;52.90
45137;DHT22;30894;51.740;19.498;2023-04-21T09:13:16;32.10;52.50
45137;DHT22;30894;51.740;19.498;2023-04-21T09:15:47;32.30;52.50
45137;DHT22;30894;51.740;19.498;2023-04-21T09:18:20;32.40;52.20
45137;DHT22;30894;51.740;19.498;2023-04-21T09:20:49;32.80;51.90
45137;DHT22;30894;51.740;19.498;2023-04-21T09:23:17;32.90;51.70
45137;DHT22;30894;51.740;19.498;2023-04-21T09:25:45;33.10;51.60
45137;DHT22;30894;51.740;19.498;2023-04-21T09:28:12;33.20;51.30
45137;DHT22;30894;51.740;19.498;2023-04-21T09:30:40;33.30;51.20
45137;DHT22;30894;51.740;19.498;2023-04-21T09:33:14;33.50;50.90
45137;DHT22;30894;51.740;19.498;2023-04-21T09:35:42;33.80;50.40
45137;DHT22;30894;51.740;19.498;2023-04-21T09:38:10;33.60;50.10
45137;DHT22;30894;51.740;19.498;2023-04-21T09:40:36;33.40;50.40
45137;DHT22;30894;51.740;19.498;2023-04-21T09:43:03;33.50;50.30
45137;DHT22;30894;51.740;19.498;2023-04-21T09:45:29;33.80;50.00
45137;DHT22;30894;51.740;19.498;2023-04-21T09:47:58;34.00;50.30
45137;DHT22;30894;51.740;19.498;2023-04-21T09:50:27;34.20;49.50
45137;DHT22;30894;51.740;19.498;2023-04-21T09:52:55;34.50;49.30
45137;DHT22;30894;51.740;19.498;2023-04-21T09:55:25;34.70;49.00
45137;DHT22;30894;51.740;19.498;2023-04-21T09:57:58;34.50;48.80
45137;DHT22;30894;51.740;19.498;2023-04-21T10:00:26;34.50;48.80
45137;DHT22;30894;51.740;19.498;2023-04-21T10:02:54;34.60;48.80
45137;DHT22;30894;51.740;19.498;2023-04-21T10:05:22;34.50;48.60
45137;DHT22;30894;51.740;19.498;2023-04-21T10:07:49;34.50;48.60
45137;DHT22;30894;51.740;19.498;2023-04-21T10:10:22;34.50;48.60
45137;DHT22;30894;51.740;19.498;2023-04-21T10:12:52;34.70;48.60
45137;DHT22;30894;51.740;19.498;2023-04-21T10:18:18;34.80;48.50
45137;DHT22;30894;51.740;19.498;2023-04-21T10:23:41;35.10;47.90
45137;DHT22;30894;51.740;19.498;2023-04-21T10:26:18;35.10;47.90
45137;DHT22;30894;51.740;19.498;2023-04-21T10:29:03;35.00;47.60
45137;DHT22;30894;51.740;19.498;2023-04-21T10:31:35;35.00;47.90
45137;DHT22;30894;51.740;19.498;2023-04-21T10:39:28;35.30;47.30
45137;DHT22;30894;51.740;19.498;2023-04-21T10:41:57;35.60;47.60
45137;DHT22;30894;51.740;19.498;2023-04-21T10:47:45;36.00;47.00
45137;DHT22;30894;51.740;19.498;2023-04-21T10:53:00;35.80;46.70
45137;DHT22;30894;51.740;19.498;2023-04-21T10:55:36;35.60;46.90
45137;DHT22;30894;51.740;19.498;2023-04-21T10:58:05;35.00;47.70
45137;DHT22;30894;51.740;19.498;2023-04-21T11:00:35;34.80;47.90
45137;DHT22;30894;51.740;19.498;2023-04-21T11:03:04;34.50;48.10
45137;DHT22;30894;51.740;19.498;2023-04-21T11:05:38;34.20;48.30
45137;DHT22;30894;51.740;19.498;2023-04-21T11:08:14;34.50;48.20
45137;DHT22;30894;51.740;19.498;2023-04-21T11:10:44;34.70;48.10
45137;DHT22;30894;51.740;19.498;2023-04-21T11:13:20;34.90;47.60
45137;DHT22;30894;51.740;19.498;2023-04-21T11:15:59;35.20;47.30
45137;DHT22;30894;51.740;19.498;2023-04-21T11:18:43;35.40;47.20
45137;DHT22;30894;51.740;19.498;2023-04-21T11:21:13;35.40;47.30
45137;DHT22;30894;51.740;19.498;2023-04-21T11:23:54;35.50;46.80
45137;DHT22;30894;51.740;19.498;2023-04-21T11:26:30;35.60;47.00
45137;DHT22;30894;51.740;19.498;2023-04-21T11:29:09;35.80;46.70
45137;DHT22;30894;51.740;19.498;2023-04-21T11:31:43;35.80;47.20
45137;DHT22;30894;51.740;19.498;2023-04-21T11:34:11;35.70;46.40
45137;DHT22;30894;51.740;19.498;2023-04-21T11:36:44;35.70;46.40
45137;DHT22;30894;51.740;19.498;2023-04-21T11:39:13;36.00;46.20
45137;DHT22;30894;51.740;19.498;2023-04-21T11:41:43;36.10;45.80
45137;DHT22;30894;51.740;19.498;2023-04-21T11:44:10;36.10;45.60
45137;DHT22;30894;51.740;19.498;2023-04-21T11:46:43;36.40;45.60
45137;DHT22;30894;51.740;19.498;2023-04-21T11:49:12;36.40;45.30
45137;DHT22;30894;51.740;19.498;2023-04-21T11:51:42;36.40;45.30
45137;DHT22;30894;51.740;19.498;2023-04-21T11:54:11;36.20;45.20
45137;DHT22;30894;51.740;19.498;2023-04-21T11:56:39;35.80;45.10
45137;DHT22;30894;51.740;19.498;2023-04-21T11:59:12;35.10;45.20
45137;DHT22;30894;51.740;19.498;2023-04-21T12:01:46;34.50;45.40
45137;DHT22;30894;51.740;19.498;2023-04-21T12:04:21;34.10;45.60
45137;DHT22;30894;51.740;19.498;2023-04-21T12:07:00;34.20;45.40
45137;DHT22;30894;51.740;19.498;2023-04-21T12:09:28;34.30;45.40
45137;DHT22;30894;51.740;19.498;2023-04-21T12:11:56;34.40;45.10
45137;DHT22;30894;51.740;19.498;2023-04-21T12:14:24;34.20;45.00
45137;DHT22;30894;51.740;19.498;2023-04-21T12:16:56;34.30;45.10
45137;DHT22;30894;51.740;19.498;2023-04-21T12:19:37;34.50;45.00
45137;DHT22;30894;51.740;19.498;2023-04-21T12:22:12;34.80;45.00
45137;DHT22;30894;51.740;19.498;2023-04-21T12:24:45;35.20;44.60
45137;DHT22;30894;51.740;19.498;2023-04-21T12:27:12;35.30;44.50
45137;DHT22;30894;51.740;19.498;2023-04-21T12:29:39;35.50;44.40
45137;DHT22;30894;51.740;19.498;2023-04-21T12:32:08;35.80;44.30
45137;DHT22;30894;51.740;19.498;2023-04-21T12:34:35;36.20;44.00
45137;DHT22;30894;51.740;19.498;2023-04-21T12:37:01;35.80;43.80
45137;DHT22;30894;51.740;19.498;2023-04-21T12:39:31;35.60;44.00
45137;DHT22;30894;51.740;19.498;2023-04-21T12:41:58;35.50;44.10
45137;DHT22;30894;51.740;19.498;2023-04-21T12:44:24;35.30;44.10
45137;DHT22;30894;51.740;19.498;2023-04-21T12:46:51;35.30;44.20
45137;DHT22;30894;51.740;19.498;2023-04-21T12:49:18;35.30;44.20
45137;DHT22;30894;51.740;19.498;2023-04-21T12:51:45;35.40;44.30
45137;DHT22;30894;51.740;19.498;2023-04-21T12:54:12;35.40;44.10
45137;DHT22;30894;51.740;19.498;2023-04-21T12:56:38;35.10;43.80
45137;DHT22;30894;51.740;19.498;2023-04-21T12:59:07;34.80;44.00
45137;DHT22;30894;51.740;19.498;2023-04-21T13:01:36;34.50;44.10
45137;DHT22;30894;51.740;19.498;2023-04-21T13:04:03;34.60;44.30
45137;DHT22;30894;51.740;19.498;2023-04-21T13:06:30;34.90;44.00
45137;DHT22;30894;51.740;19.498;2023-04-21T13:08:57;35.00;43.60
45137;DHT22;30894;51.740;19.498;2023-04-21T13:11:24;34.60;43.70
45137;DHT22;30894;51.740;19.498;2023-04-21T13:13:50;34.50;43.90
45137;DHT22;30894;51.740;19.498;2023-04-21T13:16:17;34.40;43.80
45137;DHT22;30894;51.740;19.498;2023-04-21T13:18:44;34.30;43.70
45137;DHT22;30894;51.740;19.498;2023-04-21T13:21:12;34.10;43.80
45137;DHT22;30894;51.740;19.498;2023-04-21T13:23:39;34.10;44.00
45137;DHT22;30894;51.740;19.498;2023-04-21T13:26:06;34.10;44.00
45137;DHT22;30894;51.740;19.498;2023-04-21T13:28:32;33.90;43.80
45137;DHT22;30894;51.740;19.498;2023-04-21T13:30:59;33.40;43.90
45137;DHT22;30894;51.740;19.498;2023-04-21T13:33:25;33.10;44.20
45137;DHT22;30894;51.740;19.498;2023-04-21T13:35:51;33.10;44.40
45137;DHT22;30894;51.740;19.498;2023-04-21T13:38:18;33.20;44.30
45137;DHT22;30894;51.740;19.498;2023-04-21T13:40:45;33.10;44.40
45137;DHT22;30894;51.740;19.498;2023-04-21T13:43:13;32.90;44.50
45137;DHT22;30894;51.740;19.498;2023-04-21T13:45:40;32.80;44.60
45137;DHT22;30894;51.740;19.498;2023-04-21T13:48:06;32.70;44.60
45137;DHT22;30894;51.740;19.498;2023-04-21T13:50:32;32.70;44.50
45137;DHT22;30894;51.740;19.498;2023-04-21T13:52:58;32.80;44.40
45137;DHT22;30894;51.740;19.498;2023-04-21T13:55:25;32.80;44.10
45137;DHT22;30894;51.740;19.498;2023-04-21T13:57:51;32.60;43.90
45137;DHT22;30894;51.740;19.498;2023-04-21T14:00:18;32.40;44.00
45137;DHT22;30894;51.740;19.498;2023-04-21T14:02:44;32.20;44.20
45137;DHT22;30894;51.740;19.498;2023-04-21T14:05:10;32.00;44.20
45137;DHT22;30894;51.740;19.498;2023-04-21T14:07:37;32.10;44.20
45137;DHT22;30894;51.740;19.498;2023-04-21T14:10:03;32.10;44.00
45137;DHT22;30894;51.740;19.498;2023-04-21T14:12:29;31.70;44.00
45137;DHT22;30894;51.740;19.498;2023-04-21T14:14:56;31.10;44.30
45137;DHT22;30894;51.740;19.498;2023-04-21T14:17:22;30.60;44.60
45137;DHT22;30894;51.740;19.498;2023-04-21T14:19:49;30.00;44.90
45137;DHT22;30894;51.740;19.498;2023-04-21T14:22:15;29.60;45.20
45137;DHT22;30894;51.740;19.498;2023-04-21T14:24:41;29.30;45.90
45137;DHT22;30894;51.740;19.498;2023-04-21T14:27:07;28.90;45.70
45137;DHT22;30894;51.740;19.498;2023-04-21T14:29:34;28.40;45.90
45137;DHT22;30894;51.740;19.498;2023-04-21T14:32:00;27.90;46.30
45137;DHT22;30894;51.740;19.498;2023-04-21T14:34:26;27.40;46.70
45137;DHT22;30894;51.740;19.498;2023-04-21T14:36:52;27.10;47.20
45137;DHT22;30894;51.740;19.498;2023-04-21T14:39:19;26.90;47.60
45137;DHT22;30894;51.740;19.498;2023-04-21T14:41:45;26.60;48.40
45137;DHT22;30894;51.740;19.498;2023-04-21T14:44:11;26.30;48.00
45137;DHT22;30894;51.740;19.498;2023-04-21T14:46:37;26.00;48.20
45137;DHT22;30894;51.740;19.498;2023-04-21T14:49:04;25.90;48.40
45137;DHT22;30894;51.740;19.498;2023-04-21T14:51:30;25.70;48.40
45137;DHT22;30894;51.740;19.498;2023-04-21T14:53:57;25.70;48.40
45137;DHT22;30894;51.740;19.498;2023-04-21T14:56:23;25.90;48.20
45137;DHT22;30894;51.740;19.498;2023-04-21T14:58:50;25.90;47.80
45137;DHT22;30894;51.740;19.498;2023-04-21T15:01:16;25.70;47.70
45137;DHT22;30894;51.740;19.498;2023-04-21T15:03:42;25.70;47.80
45137;DHT22;30894;51.740;19.498;2023-04-21T15:06:08;25.60;47.60
45137;DHT22;30894;51.740;19.498;2023-04-21T15:08:35;25.50;47.70
45137;DHT22;30894;51.740;19.498;2023-04-21T15:11:00;25.20;47.50
45137;DHT22;30894;51.740;19.498;2023-04-21T15:13:27;24.90;47.80
45137;DHT22;30894;51.740;19.498;2023-04-21T15:15:53;24.70;47.90
45137;DHT22;30894;51.740;19.498;2023-04-21T15:18:19;24.40;48.10
45137;DHT22;30894;51.740;19.498;2023-04-21T15:20:45;24.10;48.30
45137;DHT22;30894;51.740;19.498;2023-04-21T15:23:12;23.70;48.40
45137;DHT22;30894;51.740;19.498;2023-04-21T15:25:38;23.50;48.70
45137;DHT22;30894;51.740;19.498;2023-04-21T15:28:05;23.40;48.80
45137;DHT22;30894;51.740;19.498;2023-04-21T15:30:32;23.30;48.80
45137;DHT22;30894;51.740;19.498;2023-04-21T15:32:58;23.40;48.80
45137;DHT22;30894;51.740;19.498;2023-04-21T15:35:25;23.20;48.70
45137;DHT22;30894;51.740;19.498;2023-04-21T15:37:52;23.10;48.90
45137;DHT22;30894;51.740;19.498;2023-04-21T15:40:18;22.80;49.10
45137;DHT22;30894;51.740;19.498;2023-04-21T15:42:44;22.60;49.30